sensor_id;sensor_type;location;lat;lon;timestamp;pressure;altitude;pressure_sealevel;temperature;humidity
55271;BME280;41132;47.162;9.470;2022-12-07T00:20:06;96534.28;;;-1.06;100.00
55271;BME280;41132;47.162;9.470;2022-12-07T00:22:31;96544.59;;;-1.06;100.00
55271;BME280;41132;47.162;9.470;2022-12-07T00:35:17;96543.56;;;-0.72;100.00
55271;BME280;41132;47.162;9.470;2022-12-07T00:37:42;96542.53;;;-0.53;100.00
55271;BME280;41132;47.162;9.470;2022-12-07T00:40:08;96544.59;;;-0.74;100.00
55271;BME280;41132;47.162;9.470;2022-12-07T00:42:33;96536.28;;;-0.79;100.00
55271;BME280;41132;47.162;9.470;2022-12-07T00:44:59;96540.75;;;-0.83;100.00
55271;BME280;41132;47.162;9.470;2022-12-07T00:47:24;96547.06;;;-0.89;100.00
55271;BME280;41132;47.162;9.470;2022-12-07T00:52:25;96544.66;;;-0.76;100.00
55271;BME280;41132;47.162;9.470;2022-12-07T00:54:50;96542.22;;;-0.63;100.00
55271;BME280;41132;47.162;9.470;2022-12-07T00:57:15;96527.19;;;-0.71;100.00
55271;BME280;41132;47.162;9.470;2022-12-07T00:59:41;96542.75;;;-0.42;100.00
55271;BME280;41132;47.162;9.470;2022-12-07T01:02:06;96533.06;;;-0.53;100.00
55271;BME280;41132;47.162;9.470;2022-12-07T01:04:34;96536.97;;;-0.61;100.00
55271;BME280;41132;47.162;9.470;2022-12-07T01:06:59;96533.50;;;-0.60;100.00
55271;BME280;41132;47.162;9.470;2022-12-07T01:14:35;96513.16;;;-0.81;100.00
55271;BME280;41132;47.162;9.470;2022-12-07T01:27:21;96530.66;;;-0.56;100.00
55271;BME280;41132;47.162;9.470;2022-12-07T01:37:36;96526.75;;;-0.33;100.00
55271;BME280;41132;47.162;9.470;2022-12-07T01:40:04;96531.22;;;-0.21;100.00
55271;BME280;41132;47.162;9.470;2022-12-07T01:42:30;96530.97;;;-0.16;100.00
55271;BME280;41132;47.162;9.470;2022-12-07T01:47:49;96536.75;;;-0.12;100.00
55271;BME280;41132;47.162;9.470;2022-12-07T01:52:51;96534.03;;;-0.39;100.00
55271;BME280;41132;47.162;9.470;2022-12-07T01:55:18;96519.75;;;-0.45;100.00
55271;BME280;41132;47.162;9.470;2022-12-07T01:57:48;96526.94;;;-0.36;100.00
55271;BME280;41132;47.162;9.470;2022-12-07T02:05:25;96531.78;;;-0.15;100.00
55271;BME280;41132;47.162;9.470;2022-12-07T03:18:38;96504.19;;;0.30;100.00
55271;BME280;41132;47.162;9.470;2022-12-07T03:23:42;96497.00;;;0.20;100.00
55271;BME280;41132;47.162;9.470;2022-12-07T03:26:12;96500.03;;;0.13;100.00
55271;BME280;41132;47.162;9.470;2022-12-07T03:28:43;96505.84;;;0.16;100.00
55271;BME280;41132;47.162;9.470;2022-12-07T03:31:15;96512.31;;;0.09;100.00
55271;BME280;41132;47.162;9.470;2022-12-07T03:41:45;96492.47;;;0.38;100.00
55271;BME280;41132;47.162;9.470;2022-12-07T03:49:42;96490.34;;;0.31;100.00
55271;BME280;41132;47.162;9.470;2022-12-07T04:10:23;96486.03;;;0.46;100.00
55271;BME280;41132;47.162;9.470;2022-12-07T05:32:58;96496.31;;;0.60;100.00
55271;BME280;41132;47.162;9.470;2022-12-07T06:09:01;96506.19;;;0.68;100.00
55271;BME280;41132;47.162;9.470;2022-12-07T06:42:37;96520.84;;;0.67;100.00
55271;BME280;41132;47.162;9.470;2022-12-07T13:21:51;96347.47;;;3.22;100.00
55271;BME280;41132;47.162;9.470;2022-12-07T13:29:37;96337.84;;;3.00;100.00
55271;BME280;41132;47.162;9.470;2022-12-07T13:32:03;96337.50;;;3.04;100.00
55271;BME280;41132;47.162;9.470;2022-12-07T13:34:37;96334.91;;;2.93;100.00
55271;BME280;41132;47.162;9.470;2022-12-07T14:22:15;96321.19;;;2.56;100.00
55271;BME280;41132;47.162;9.470;2022-12-07T14:24:43;96328.78;;;2.70;100.00
55271;BME280;41132;47.162;9.470;2022-12-07T14:27:23;96329.63;;;2.70;100.00
55271;BME280;41132;47.162;9.470;2022-12-07T14:29:51;96313.13;;;2.71;100.00
55271;BME280;41132;47.162;9.470;2022-12-07T14:35:10;96321.00;;;2.70;100.00
55271;BME280;41132;47.162;9.470;2022-12-07T14:37:36;96314.56;;;2.76;100.00
55271;BME280;41132;47.162;9.470;2022-12-07T15:11:04;96299.13;;;2.50;100.00
55271;BME280;41132;47.162;9.470;2022-12-07T15:13:29;96299.63;;;2.55;100.00
55271;BME280;41132;47.162;9.470;2022-12-07T15:16:18;96314.06;;;2.70;100.00
55271;BME280;41132;47.162;9.470;2022-12-07T15:18:44;96318.88;;;2.64;100.00
55271;BME280;41132;47.162;9.470;2022-12-07T15:21:13;96325.03;;;2.74;100.00
55271;BME280;41132;47.162;9.470;2022-12-07T15:28:49;96310.53;;;2.71;100.00
55271;BME280;41132;47.162;9.470;2022-12-07T15:36:27;96319.91;;;2.61;100.00
55271;BME280;41132;47.162;9.470;2022-12-07T15:38:54;96314.75;;;2.61;100.00
55271;BME280;41132;47.162;9.470;2022-12-07T15:41:20;96320.75;;;2.62;100.00
55271;BME280;41132;47.162;9.470;2022-12-07T15:43:45;96326.84;;;2.61;100.00
55271;BME280;41132;47.162;9.470;2022-12-07T15:46:34;96315.22;;;2.66;100.00
55271;BME280;41132;47.162;9.470;2022-12-07T15:49:00;96318.25;;;2.60;100.00
55271;BME280;41132;47.162;9.470;2022-12-07T15:51:26;96315.31;;;2.65;100.00
55271;BME280;41132;47.162;9.470;2022-12-07T15:53:52;96310.63;;;2.70;100.00
55271;BME280;41132;47.162;9.470;2022-12-07T15:56:18;96318.91;;;2.75;100.00
55271;BME280;41132;47.162;9.470;2022-12-07T15:58:43;96317.38;;;2.72;100.00
55271;BME280;41132;47.162;9.470;2022-12-07T16:01:13;96313.16;;;2.83;100.00
55271;BME280;41132;47.162;9.470;2022-12-07T16:03:39;96310.19;;;2.76;100.00
55271;BME280;41132;47.162;9.470;2022-12-07T16:06:05;96310.19;;;2.76;100.00
55271;BME280;41132;47.162;9.470;2022-12-07T16:08:30;96298.72;;;2.67;100.00
55271;BME280;41132;47.162;9.470;2022-12-07T16:10:56;96308.22;;;2.80;100.00
55271;BME280;41132;47.162;9.470;2022-12-07T16:13:21;96301.34;;;2.79;100.00
55271;BME280;41132;47.162;9.470;2022-12-07T16:15:46;96309.63;;;2.84;100.00
55271;BME280;41132;47.162;9.470;2022-12-07T16:18:12;96310.13;;;2.89;100.00
55271;BME280;41132;47.162;9.470;2022-12-07T16:20:37;96301.75;;;2.85;100.00
55271;BME280;41132;47.162;9.470;2022-12-07T16:23:03;96313.88;;;2.85;100.00
55271;BME280;41132;47.162;9.470;2022-12-07T16:25:28;96312.47;;;2.92;100.00
55271;BME280;41132;47.162;9.470;2022-12-07T16:27:54;96314.34;;;2.90;100.00
55271;BME280;41132;47.162;9.470;2022-12-07T16:30:19;96310.56;;;2.83;100.00
55271;BME280;41132;47.162;9.470;2022-12-07T16:32:45;96304.22;;;2.87;100.00
55271;BME280;41132;47.162;9.470;2022-12-07T16:35:11;96303.28;;;2.88;100.00
55271;BME280;41132;47.162;9.470;2022-12-07T16:37:37;96310.94;;;2.89;100.00
55271;BME280;41132;47.162;9.470;2022-12-07T16:40:03;96305.88;;;2.88;100.00
55271;BME280;41132;47.162;9.470;2022-12-07T16:42:35;96307.75;;;2.86;100.00
55271;BME280;41132;47.162;9.470;2022-12-07T16:45:02;96306.00;;;2.86;100.00
55271;BME280;41132;47.162;9.470;2022-12-07T16:47:28;96305.75;;;2.89;100.00
55271;BME280;41132;47.162;9.470;2022-12-07T16:49:54;96295.97;;;2.82;100.00
55271;BME280;41132;47.162;9.470;2022-12-07T16:52:20;96298.44;;;2.83;100.00
55271;BME280;41132;47.162;9.470;2022-12-07T16:54:47;96303.41;;;2.86;100.00
55271;BME280;41132;47.162;9.470;2022-12-07T16:59:48;96295.97;;;2.82;100.00
55271;BME280;41132;47.162;9.470;2022-12-07T17:02:13;96303.88;;;2.91;100.00
55271;BME280;41132;47.162;9.470;2022-12-07T17:04:39;96291.31;;;2.98;100.00
55271;BME280;41132;47.162;9.470;2022-12-07T17:07:09;96283.38;;;2.88;100.00
55271;BME280;41132;47.162;9.470;2022-12-07T17:09:34;96287.84;;;2.86;100.00
55271;BME280;41132;47.162;9.470;2022-12-07T17:12:00;96284.69;;;2.94;100.00
55271;BME280;41132;47.162;9.470;2022-12-07T17:14:26;96294.34;;;2.92;100.00
55271;BME280;41132;47.162;9.470;2022-12-07T17:17:10;96285.13;;;2.88;100.00
55271;BME280;41132;47.162;9.470;2022-12-07T17:19:38;96286.19;;;2.85;100.00
55271;BME280;41132;47.162;9.470;2022-12-07T17:22:04;96267.78;;;2.77;100.00
55271;BME280;41132;47.162;9.470;2022-12-07T17:24:29;96259.69;;;2.82;100.00
55271;BME280;41132;47.162;9.470;2022-12-07T17:26:55;96267.84;;;2.88;100.00
55271;BME280;41132;47.162;9.470;2022-12-07T17:29:20;96265.09;;;2.90;100.00
55271;BME280;41132;47.162;9.470;2022-12-07T17:31:47;96277.38;;;2.99;100.00
55271;BME280;41132;47.162;9.470;2022-12-07T17:34:14;96277.84;;;3.04;100.00
55271;BME280;41132;47.162;9.470;2022-12-07T17:36:40;96285.44;;;3.07;100.00
55271;BME280;41132;47.162;9.470;2022-12-07T17:39:07;96274.44;;;3.04;100.00
55271;BME280;41132;47.162;9.470;2022-12-07T17:41:34;96270.09;;;2.93;100.00
55271;BME280;41132;47.162;9.470;2022-12-07T17:44:18;96259.44;;;2.85;100.00
55271;BME280;41132;47.162;9.470;2022-12-07T17:46:46;96271.25;;;2.89;100.00
55271;BME280;41132;47.162;9.470;2022-12-07T17:49:12;96272.41;;;2.85;100.00
55271;BME280;41132;47.162;9.470;2022-12-07T17:51:38;96270.09;;;2.93;100.00
55271;BME280;41132;47.162;9.470;2022-12-07T17:54:22;96269.38;;;2.91;100.00
55271;BME280;41132;47.162;9.470;2022-12-07T18:02:23;96251.94;;;2.93;100.00
55271;BME280;41132;47.162;9.470;2022-12-07T18:07:23;96251.66;;;2.85;100.00
55271;BME280;41132;47.162;9.470;2022-12-07T18:09:48;96263.59;;;2.99;100.00
55271;BME280;41132;47.162;9.470;2022-12-07T18:17:24;96249.56;;;2.90;100.00
55271;BME280;41132;47.162;9.470;2022-12-07T19:03:50;96237.63;;;2.76;100.00
55271;BME280;41132;47.162;9.470;2022-12-07T19:06:15;96216.09;;;2.51;100.00
55271;BME280;41132;47.162;9.470;2022-12-07T19:08:41;96223.56;;;2.67;100.00
55271;BME280;41132;47.162;9.470;2022-12-07T19:11:06;96224.28;;;2.69;100.00
55271;BME280;41132;47.162;9.470;2022-12-07T19:16:26;96226.69;;;2.72;100.00
55271;BME280;41132;47.162;9.470;2022-12-07T19:18:52;96223.47;;;2.69;100.00
55271;BME280;41132;47.162;9.470;2022-12-07T19:21:17;96220.88;;;2.69;100.00
55271;BME280;41132;47.162;9.470;2022-12-07T19:23:42;96218.41;;;2.79;100.00
55271;BME280;41132;47.162;9.470;2022-12-07T19:26:08;96214.28;;;2.76;100.00
55271;BME280;41132;47.162;9.470;2022-12-07T19:28:33;96215.38;;;2.85;100.00
55271;BME280;41132;47.162;9.470;2022-12-07T19:30:58;96211.34;;;2.81;100.00
55271;BME280;41132;47.162;9.470;2022-12-07T19:35:59;96209.72;;;2.80;100.00
55271;BME280;41132;47.162;9.470;2022-12-07T19:48:45;96205.94;;;2.84;100.00
55271;BME280;41132;47.162;9.470;2022-12-07T19:56:20;96195.06;;;2.67;100.00
55271;BME280;41132;47.162;9.470;2022-12-07T20:09:07;96169.38;;;2.53;100.00
55271;BME280;41132;47.162;9.470;2022-12-07T20:50:21;96149.75;;;1.91;100.00
55271;BME280;41132;47.162;9.470;2022-12-07T21:08:59;96168.25;;;1.98;100.00
55271;BME280;41132;47.162;9.470;2022-12-07T21:50:12;96156.31;;;1.47;100.00
55271;BME280;41132;47.162;9.470;2022-12-07T23:18:38;96116.75;;;0.71;100.00
